sensor_id;sensor_type;location;lat;lon;timestamp;pressure;altitude;pressure_sealevel;temperature;humidity
72892;BME280;61032;50.782;6.818;2023-04-01T00:00:05;98466.00;;;10.97;70.59
72892;BME280;61032;50.782;6.818;2023-04-01T00:01:06;98461.34;;;11.09;70.34
72892;BME280;61032;50.782;6.818;2023-04-01T00:02:07;98464.47;;;11.03;70.63
72892;BME280;61032;50.782;6.818;2023-04-01T00:03:07;98463.25;;;10.97;70.80
72892;BME280;61032;50.782;6.818;2023-04-01T00:04:08;98474.97;;;10.87;70.79
72892;BME280;61032;50.782;6.818;2023-04-01T00:05:09;98459.66;;;10.90;71.10
72892;BME280;61032;50.782;6.818;2023-04-01T00:06:14;98461.28;;;10.94;71.05
72892;BME280;61032;50.782;6.818;2023-04-01T00:07:15;98457.38;;;10.99;70.72
72892;BME280;61032;50.782;6.818;2023-04-01T00:08:16;98462.09;;;10.98;70.74
72892;BME280;61032;50.782;6.818;2023-04-01T00:09:17;98462.47;;;10.97;70.51
72892;BME280;61032;50.782;6.818;2023-04-01T00:10:18;98455.03;;;10.97;70.70
72892;BME280;61032;50.782;6.818;2023-04-01T00:11:18;98462.44;;;10.93;70.50
72892;BME280;61032;50.782;6.818;2023-04-01T00:12:19;98453.47;;;11.00;70.89
72892;BME280;61032;50.782;6.818;2023-04-01T00:13:20;98466.31;;;10.85;70.75
72892;BME280;61032;50.782;6.818;2023-04-01T00:14:20;98460.06;;;10.88;71.19
72892;BME280;61032;50.782;6.818;2023-04-01T00:15:20;98450.63;;;10.89;71.29
72892;BME280;61032;50.782;6.818;2023-04-01T00:16:21;98456.91;;;10.86;71.01
72892;BME280;61032;50.782;6.818;2023-04-01T00:17:21;98461.22;;;10.87;71.39
72892;BME280;61032;50.782;6.818;2023-04-01T00:18:22;98456.94;;;10.93;71.07
72892;BME280;61032;50.782;6.818;2023-04-01T00:19:22;98460.94;;;10.99;70.81
72892;BME280;61032;50.782;6.818;2023-04-01T00:20:24;98456.91;;;10.90;70.70
72892;BME280;61032;50.782;6.818;2023-04-01T00:21:25;98460.50;;;10.97;70.65
72892;BME280;61032;50.782;6.818;2023-04-01T00:22:26;98459.75;;;11.00;70.84
72892;BME280;61032;50.782;6.818;2023-04-01T00:23:27;98459.75;;;11.00;71.05
72892;BME280;61032;50.782;6.818;2023-04-01T00:24:27;98452.28;;;10.97;70.86
72892;BME280;61032;50.782;6.818;2023-04-01T00:25:27;98458.97;;;11.00;70.64
72892;BME280;61032;50.782;6.818;2023-04-01T00:26:28;98452.28;;;11.05;70.81
72892;BME280;61032;50.782;6.818;2023-04-01T00:27:29;98464.50;;;11.07;70.37
72892;BME280;61032;50.782;6.818;2023-04-01T00:28:29;98458.94;;;10.96;70.63
72892;BME280;61032;50.782;6.818;2023-04-01T00:29:30;98457.28;;;10.85;70.90
72892;BME280;61032;50.782;6.818;2023-04-01T00:30:30;98447.53;;;10.94;70.73
72892;BME280;61032;50.782;6.818;2023-04-01T00:31:31;98454.25;;;11.04;70.42
72892;BME280;61032;50.782;6.818;2023-04-01T00:32:31;98457.38;;;11.02;70.29
72892;BME280;61032;50.782;6.818;2023-04-01T00:33:32;98448.00;;;11.07;70.52
72892;BME280;61032;50.782;6.818;2023-04-01T00:34:32;98453.50;;;11.07;70.18
72892;BME280;61032;50.782;6.818;2023-04-01T00:35:33;98442.16;;;11.16;70.17
72892;BME280;61032;50.782;6.818;2023-04-01T00:36:33;98446.88;;;11.15;70.18
72892;BME280;61032;50.782;6.818;2023-04-01T00:37:36;98448.09;;;11.25;69.78
72892;BME280;61032;50.782;6.818;2023-04-01T00:38:37;98452.66;;;11.03;70.21
72892;BME280;61032;50.782;6.818;2023-04-01T00:39:38;98452.69;;;11.07;70.36
72892;BME280;61032;50.782;6.818;2023-04-01T00:40:41;98449.59;;;11.12;70.06
72892;BME280;61032;50.782;6.818;2023-04-01T00:41:42;98444.84;;;11.09;70.49
72892;BME280;61032;50.782;6.818;2023-04-01T00:42:42;98446.47;;;11.13;69.85
72892;BME280;61032;50.782;6.818;2023-04-01T00:43:44;98443.31;;;11.11;69.86
72892;BME280;61032;50.782;6.818;2023-04-01T00:44:53;98445.72;;;11.20;69.83
72892;BME280;61032;50.782;6.818;2023-04-01T00:45:53;98443.25;;;11.00;70.10
72892;BME280;61032;50.782;6.818;2023-04-01T00:46:54;98441.28;;;10.97;70.37
72892;BME280;61032;50.782;6.818;2023-04-01T00:47:55;98451.06;;;10.95;70.54
72892;BME280;61032;50.782;6.818;2023-04-01T00:48:56;98436.97;;;11.03;70.60
72892;BME280;61032;50.782;6.818;2023-04-01T00:49:57;98435.81;;;11.08;70.04
72892;BME280;61032;50.782;6.818;2023-04-01T00:51:05;98433.09;;;11.12;69.87
72892;BME280;61032;50.782;6.818;2023-04-01T00:52:08;98434.63;;;11.06;69.72
72892;BME280;61032;50.782;6.818;2023-04-01T00:53:11;98444.34;;;10.89;70.27
72892;BME280;61032;50.782;6.818;2023-04-01T00:54:13;98447.16;;;10.96;70.01
72892;BME280;61032;50.782;6.818;2023-04-01T00:55:16;98447.56;;;11.01;70.70
72892;BME280;61032;50.782;6.818;2023-04-01T00:56:24;98444.03;;;11.05;70.32
72892;BME280;61032;50.782;6.818;2023-04-01T00:57:36;98442.47;;;11.03;70.85
72892;BME280;61032;50.782;6.818;2023-04-01T00:58:49;98438.53;;;11.05;70.63
72892;BME280;61032;50.782;6.818;2023-04-01T00:59:52;98443.28;;;11.08;70.13
72892;BME280;61032;50.782;6.818;2023-04-01T01:00:54;98436.22;;;11.10;70.22
72892;BME280;61032;50.782;6.818;2023-04-01T01:01:55;98438.19;;;11.10;69.92
72892;BME280;61032;50.782;6.818;2023-04-01T01:02:56;98444.09;;;11.12;70.23
72892;BME280;61032;50.782;6.818;2023-04-01T01:03:56;98438.63;;;11.15;70.15
72892;BME280;61032;50.782;6.818;2023-04-01T01:04:57;98427.56;;;11.08;69.70
72892;BME280;61032;50.782;6.818;2023-04-01T01:08:05;98429.50;;;11.04;70.11
72892;BME280;61032;50.782;6.818;2023-04-01T01:10:31;98430.38;;;11.22;69.82
72892;BME280;61032;50.782;6.818;2023-04-01T01:11:50;98436.28;;;11.17;69.43
72892;BME280;61032;50.782;6.818;2023-04-01T01:15:37;98430.31;;;11.01;70.34
72892;BME280;61032;50.782;6.818;2023-04-01T01:16:44;98438.88;;;10.92;70.78
72892;BME280;61032;50.782;6.818;2023-04-01T01:18:03;98432.22;;;10.93;70.63
72892;BME280;61032;50.782;6.818;2023-04-01T01:19:30;98438.13;;;10.95;70.26
72892;BME280;61032;50.782;6.818;2023-04-01T01:20:48;98439.69;;;10.96;70.60
72892;BME280;61032;50.782;6.818;2023-04-01T01:26:46;98435.41;;;11.06;70.14
72892;BME280;61032;50.782;6.818;2023-04-01T01:28:44;98424.47;;;11.13;70.28
72892;BME280;61032;50.782;6.818;2023-04-01T01:30:39;98431.09;;;11.09;70.33
72892;BME280;61032;50.782;6.818;2023-04-01T01:32:11;98434.16;;;10.93;70.49
72892;BME280;61032;50.782;6.818;2023-04-01T01:36:53;98434.22;;;11.03;69.96
72892;BME280;61032;50.782;6.818;2023-04-01T01:37:59;98426.75;;;11.04;70.01
72892;BME280;61032;50.782;6.818;2023-04-01T01:39:03;98437.00;;;11.07;69.86
72892;BME280;61032;50.782;6.818;2023-04-01T01:40:08;98434.63;;;11.06;69.80
72892;BME280;61032;50.782;6.818;2023-04-01T01:41:12;98423.25;;;11.07;69.55
72892;BME280;61032;50.782;6.818;2023-04-01T01:42:17;98422.84;;;11.09;69.78
72892;BME280;61032;50.782;6.818;2023-04-01T01:43:25;98435.38;;;11.02;69.94
72892;BME280;61032;50.782;6.818;2023-04-01T01:44:29;98425.19;;;11.07;69.58
72892;BME280;61032;50.782;6.818;2023-04-01T01:45:34;98426.41;;;11.09;69.67
72892;BME280;61032;50.782;6.818;2023-04-01T01:46:37;98433.09;;;11.12;69.19
72892;BME280;61032;50.782;6.818;2023-04-01T01:47:40;98424.03;;;11.08;69.48
72892;BME280;61032;50.782;6.818;2023-04-01T01:48:42;98431.91;;;11.13;69.43
72892;BME280;61032;50.782;6.818;2023-04-01T01:49:43;98424.09;;;11.18;69.14
72892;BME280;61032;50.782;6.818;2023-04-01T01:50:45;98433.09;;;11.12;69.17
72892;BME280;61032;50.782;6.818;2023-04-01T01:51:46;98433.91;;;11.16;69.18
72892;BME280;61032;50.782;6.818;2023-04-01T01:52:49;98424.44;;;11.10;69.32
72892;BME280;61032;50.782;6.818;2023-04-01T01:53:50;98430.72;;;11.10;69.25
72892;BME280;61032;50.782;6.818;2023-04-01T01:54:52;98425.19;;;11.07;69.65
72892;BME280;61032;50.782;6.818;2023-04-01T01:55:53;98422.84;;;11.09;69.79
72892;BME280;61032;50.782;6.818;2023-04-01T01:57:04;98425.56;;;11.01;70.11
72892;BME280;61032;50.782;6.818;2023-04-01T01:59:17;98426.78;;;11.08;69.52
72892;BME280;61032;50.782;6.818;2023-04-01T02:00:21;98429.88;;;11.02;69.80
72892;BME280;61032;50.782;6.818;2023-04-01T02:01:27;98432.25;;;11.00;70.07
72892;BME280;61032;50.782;6.818;2023-04-01T02:02:28;98429.50;;;11.00;70.44
72892;BME280;61032;50.782;6.818;2023-04-01T02:03:34;98434.66;;;11.09;70.13
72892;BME280;61032;50.782;6.818;2023-04-01T02:04:38;98426.34;;;11.02;69.96
72892;BME280;61032;50.782;6.818;2023-04-01T02:05:40;98423.59;;;10.98;70.13
72892;BME280;61032;50.782;6.818;2023-04-01T02:06:46;98426.75;;;11.00;70.81
72892;BME280;61032;50.782;6.818;2023-04-01T02:07:54;98423.97;;;10.93;70.74
72892;BME280;61032;50.782;6.818;2023-04-01T02:08:59;98422.81;;;10.98;71.02
72892;BME280;61032;50.782;6.818;2023-04-01T02:10:01;98427.53;;;11.05;70.73
72892;BME280;61032;50.782;6.818;2023-04-01T02:11:05;98425.19;;;10.99;70.87
72892;BME280;61032;50.782;6.818;2023-04-01T02:12:08;98430.66;;;10.96;70.65
72892;BME280;61032;50.782;6.818;2023-04-01T02:13:27;98424.00;;;11.00;70.72
72892;BME280;61032;50.782;6.818;2023-04-01T02:15:37;98422.03;;;10.97;70.58
72892;BME280;61032;50.782;6.818;2023-04-01T02:16:49;98423.97;;;10.93;70.82
72892;BME280;61032;50.782;6.818;2023-04-01T02:17:53;98429.47;;;10.93;70.88
72892;BME280;61032;50.782;6.818;2023-04-01T02:18:55;98422.75;;;10.91;71.17
72892;BME280;61032;50.782;6.818;2023-04-01T02:19:59;98430.91;;;10.73;71.50
72892;BME280;61032;50.782;6.818;2023-04-01T02:21:02;98427.78;;;10.78;71.95
72892;BME280;61032;50.782;6.818;2023-04-01T02:22:09;98426.63;;;10.83;71.51
72892;BME280;61032;50.782;6.818;2023-04-01T02:23:11;98435.69;;;10.87;71.79
72892;BME280;61032;50.782;6.818;2023-04-01T02:24:14;98425.91;;;10.93;71.93
72892;BME280;61032;50.782;6.818;2023-04-01T02:25:23;98426.72;;;10.97;71.92
72892;BME280;61032;50.782;6.818;2023-04-01T02:26:25;98425.13;;;10.92;71.95
72892;BME280;61032;50.782;6.818;2023-04-01T02:27:26;98440.88;;;10.99;71.42
72892;BME280;61032;50.782;6.818;2023-04-01T02:28:28;98427.94;;;11.03;71.67
72892;BME280;61032;50.782;6.818;2023-04-01T02:29:29;98426.38;;;11.06;71.46
72892;BME280;61032;50.782;6.818;2023-04-01T02:30:32;98427.94;;;11.07;71.30
72892;BME280;61032;50.782;6.818;2023-04-01T02:31:34;98433.06;;;11.01;71.48
72892;BME280;61032;50.782;6.818;2023-04-01T02:32:36;98428.28;;;10.94;71.93
72892;BME280;61032;50.782;6.818;2023-04-01T02:33:40;98435.00;;;11.00;72.32
72892;BME280;61032;50.782;6.818;2023-04-01T02:34:42;98429.91;;;11.06;71.82
72892;BME280;61032;50.782;6.818;2023-04-01T02:35:43;98430.75;;;11.14;71.25
72892;BME280;61032;50.782;6.818;2023-04-01T02:36:43;98428.34;;;11.09;71.75
72892;BME280;61032;50.782;6.818;2023-04-01T02:37:45;98433.84;;;11.09;71.46
72892;BME280;61032;50.782;6.818;2023-04-01T02:38:47;98435.81;;;11.01;71.82
72892;BME280;61032;50.782;6.818;2023-04-01T02:39:49;98438.53;;;10.97;72.29
72892;BME280;61032;50.782;6.818;2023-04-01T02:40:56;98445.13;;;10.89;72.40
72892;BME280;61032;50.782;6.818;2023-04-01T02:41:56;98428.31;;;10.98;72.47
72892;BME280;61032;50.782;6.818;2023-04-01T02:42:57;98434.13;;;10.89;72.04
72892;BME280;61032;50.782;6.818;2023-04-01T02:43:57;98431.34;;;10.82;72.75
72892;BME280;61032;50.782;6.818;2023-04-01T02:44:59;98429.41;;;10.86;72.98
72892;BME280;61032;50.782;6.818;2023-04-01T02:45:59;98430.56;;;10.85;73.35
72892;BME280;61032;50.782;6.818;2023-04-01T02:47:01;98430.13;;;10.76;72.94
72892;BME280;61032;50.782;6.818;2023-04-01T02:48:01;98430.53;;;10.82;73.29
72892;BME280;61032;50.782;6.818;2023-04-01T02:49:02;98425.91;;;10.89;72.96
72892;BME280;61032;50.782;6.818;2023-04-01T02:50:02;98428.63;;;10.86;73.00
72892;BME280;61032;50.782;6.818;2023-04-01T02:51:03;98425.47;;;10.80;73.40
72892;BME280;61032;50.782;6.818;2023-04-01T02:52:04;98418.44;;;10.90;73.78
72892;BME280;61032;50.782;6.818;2023-04-01T02:53:04;98425.91;;;10.89;73.67
72892;BME280;61032;50.782;6.818;2023-04-01T02:54:06;98410.94;;;10.87;73.18
72892;BME280;61032;50.782;6.818;2023-04-01T02:55:06;98419.56;;;10.85;73.26
72892;BME280;61032;50.782;6.818;2023-04-01T02:56:07;98420.34;;;10.82;73.02
72892;BME280;61032;50.782;6.818;2023-04-01T02:57:07;98415.63;;;10.83;73.40
72892;BME280;61032;50.782;6.818;2023-04-01T02:58:07;98419.16;;;10.83;72.96
72892;BME280;61032;50.782;6.818;2023-04-01T02:59:08;98412.88;;;10.79;72.80
72892;BME280;61032;50.782;6.818;2023-04-01T03:00:08;98417.22;;;10.80;73.42
72892;BME280;61032;50.782;6.818;2023-04-01T03:01:11;98422.72;;;10.80;73.43
72892;BME280;61032;50.782;6.818;2023-04-01T03:02:11;98417.56;;;10.75;73.18
72892;BME280;61032;50.782;6.818;2023-04-01T03:03:13;98414.41;;;10.73;73.11
72892;BME280;61032;50.782;6.818;2023-04-01T03:04:13;98419.13;;;10.73;73.68
72892;BME280;61032;50.782;6.818;2023-04-01T03:05:13;98414.03;;;10.75;74.05
72892;BME280;61032;50.782;6.818;2023-04-01T03:06:15;98411.66;;;10.73;73.49
72892;BME280;61032;50.782;6.818;2023-04-01T03:07:16;98416.41;;;10.83;73.25
72892;BME280;61032;50.782;6.818;2023-04-01T03:08:16;98425.47;;;10.87;72.84
72892;BME280;61032;50.782;6.818;2023-04-01T03:09:16;98411.75;;;10.87;72.38
72892;BME280;61032;50.782;6.818;2023-04-01T03:10:17;98424.25;;;10.81;72.87
72892;BME280;61032;50.782;6.818;2023-04-01T03:11:17;98418.38;;;10.79;72.80
72892;BME280;61032;50.782;6.818;2023-04-01T03:12:17;98409.38;;;10.86;72.95
72892;BME280;61032;50.782;6.818;2023-04-01T03:13:18;98423.50;;;10.84;71.87
72892;BME280;61032;50.782;6.818;2023-04-01T03:14:18;98414.88;;;10.86;72.29
72892;BME280;61032;50.782;6.818;2023-04-01T03:15:18;98417.22;;;10.80;71.75
72892;BME280;61032;50.782;6.818;2023-04-01T03:16:18;98420.72;;;10.77;72.21
72892;BME280;61032;50.782;6.818;2023-04-01T03:17:19;98417.97;;;10.77;72.53
72892;BME280;61032;50.782;6.818;2023-04-01T03:18:19;98416.41;;;10.80;72.70
72892;BME280;61032;50.782;6.818;2023-04-01T03:19:20;98419.84;;;10.66;72.13
72892;BME280;61032;50.782;6.818;2023-04-01T03:20:20;98416.69;;;10.64;72.01
72892;BME280;61032;50.782;6.818;2023-04-01T03:21:23;98417.84;;;10.59;72.45
72892;BME280;61032;50.782;6.818;2023-04-01T03:22:24;98422.59;;;10.66;73.06
72892;BME280;61032;50.782;6.818;2023-04-01T03:23:24;98420.25;;;10.68;72.25
72892;BME280;61032;50.782;6.818;2023-04-01T03:24:24;98424.59;;;10.69;72.37
72892;BME280;61032;50.782;6.818;2023-04-01T03:25:25;98417.94;;;10.74;72.40
72892;BME280;61032;50.782;6.818;2023-04-01T03:26:25;98423.03;;;10.72;72.14
72892;BME280;61032;50.782;6.818;2023-04-01T03:27:27;98424.63;;;10.76;72.12
72892;BME280;61032;50.782;6.818;2023-04-01T03:28:27;98419.56;;;10.78;71.90
72892;BME280;61032;50.782;6.818;2023-04-01T03:29:27;98425.41;;;10.73;72.11
72892;BME280;61032;50.782;6.818;2023-04-01T03:30:28;98419.53;;;10.75;71.95
72892;BME280;61032;50.782;6.818;2023-04-01T03:31:31;98429.75;;;10.78;71.91
72892;BME280;61032;50.782;6.818;2023-04-01T03:32:31;98425.84;;;10.82;72.02
72892;BME280;61032;50.782;6.818;2023-04-01T03:33:32;98425.06;;;10.78;71.13
72892;BME280;61032;50.782;6.818;2023-04-01T03:34:33;98429.38;;;10.83;71.38
72892;BME280;61032;50.782;6.818;2023-04-01T03:35:33;98425.78;;;10.72;70.91
72892;BME280;61032;50.782;6.818;2023-04-01T03:36:36;98427.69;;;10.64;71.87
72892;BME280;61032;50.782;6.818;2023-04-01T03:37:36;98432.78;;;10.65;72.35
72892;BME280;61032;50.782;6.818;2023-04-01T03:38:37;98426.13;;;10.66;72.11
72892;BME280;61032;50.782;6.818;2023-04-01T03:39:37;98432.78;;;10.65;72.15
72892;BME280;61032;50.782;6.818;2023-04-01T03:40:42;98427.75;;;10.71;72.02
72892;BME280;61032;50.782;6.818;2023-04-01T03:41:42;98425.00;;;10.71;71.36
72892;BME280;61032;50.782;6.818;2023-04-01T03:42:42;98436.78;;;10.72;71.30
72892;BME280;61032;50.782;6.818;2023-04-01T03:43:44;98437.56;;;10.72;71.29
72892;BME280;61032;50.782;6.818;2023-04-01T03:44:44;98430.13;;;10.76;71.48
72892;BME280;61032;50.782;6.818;2023-04-01T03:45:46;98437.59;;;10.76;71.45
72892;BME280;61032;50.782;6.818;2023-04-01T03:46:47;98443.91;;;10.80;71.30
72892;BME280;61032;50.782;6.818;2023-04-01T03:47:47;98437.22;;;10.77;71.32
72892;BME280;61032;50.782;6.818;2023-04-01T03:48:47;98433.28;;;10.78;71.48
72892;BME280;61032;50.782;6.818;2023-04-01T03:49:48;98430.41;;;10.57;71.24
72892;BME280;61032;50.782;6.818;2023-04-01T03:50:48;98433.56;;;10.59;71.53
72892;BME280;61032;50.782;6.818;2023-04-01T03:51:48;98430.44;;;10.64;72.27
72892;BME280;61032;50.782;6.818;2023-04-01T03:52:49;98438.28;;;10.65;72.06
72892;BME280;61032;50.782;6.818;2023-04-01T03:53:49;98438.72;;;10.71;71.75
72892;BME280;61032;50.782;6.818;2023-04-01T03:54:49;98432.88;;;10.76;71.61
72892;BME280;61032;50.782;6.818;2023-04-01T03:55:50;98438.31;;;10.69;71.07
72892;BME280;61032;50.782;6.818;2023-04-01T03:56:51;98434.75;;;10.65;71.46
72892;BME280;61032;50.782;6.818;2023-04-01T03:57:51;98437.41;;;10.51;72.08
72892;BME280;61032;50.782;6.818;2023-04-01T03:58:52;98439.06;;;10.59;72.44
72892;BME280;61032;50.782;6.818;2023-04-01T03:59:52;98440.66;;;10.67;72.17
72892;BME280;61032;50.782;6.818;2023-04-01T04:00:52;98435.09;;;10.60;72.13
72892;BME280;61032;50.782;6.818;2023-04-01T04:01:53;98433.94;;;10.61;72.40
72892;BME280;61032;50.782;6.818;2023-04-01T04:02:53;98437.56;;;10.72;72.46
72892;BME280;61032;50.782;6.818;2023-04-01T04:03:55;98439.09;;;10.66;71.83
72892;BME280;61032;50.782;6.818;2023-04-01T04:04:56;98438.69;;;10.67;71.92
72892;BME280;61032;50.782;6.818;2023-04-01T04:05:56;98434.75;;;10.65;72.31
72892;BME280;61032;50.782;6.818;2023-04-01T04:06:57;98439.06;;;10.62;72.28
72892;BME280;61032;50.782;6.818;2023-04-01T04:07:57;98443.66;;;10.48;72.38
72892;BME280;61032;50.782;6.818;2023-04-01T04:08:57;98437.75;;;10.46;72.46
72892;BME280;61032;50.782;6.818;2023-04-01T04:09:57;98442.91;;;10.51;72.74
72892;BME280;61032;50.782;6.818;2023-04-01T04:10:58;98449.16;;;10.48;72.77
72892;BME280;61032;50.782;6.818;2023-04-01T04:11:59;98443.22;;;10.42;73.01
72892;BME280;61032;50.782;6.818;2023-04-01T04:12:59;98440.16;;;10.51;73.08
72892;BME280;61032;50.782;6.818;2023-04-01T04:14:00;98442.50;;;10.49;72.68
72892;BME280;61032;50.782;6.818;2023-04-01T04:15:00;98448.75;;;10.46;73.23
72892;BME280;61032;50.782;6.818;2023-04-01T04:16:02;98442.84;;;10.44;73.29
72892;BME280;61032;50.782;6.818;2023-04-01T04:17:02;98431.81;;;10.37;73.50
72892;BME280;61032;50.782;6.818;2023-04-01T04:18:03;98437.31;;;10.37;73.77
72892;BME280;61032;50.782;6.818;2023-04-01T04:19:03;98439.66;;;10.42;73.22
72892;BME280;61032;50.782;6.818;2023-04-01T04:20:04;98445.16;;;10.42;73.62
72892;BME280;61032;50.782;6.818;2023-04-01T04:21:05;98444.78;;;10.43;73.51
72892;BME280;61032;50.782;6.818;2023-04-01T04:22:05;98447.56;;;10.47;74.07
72892;BME280;61032;50.782;6.818;2023-04-01T04:23:06;98444.47;;;10.52;73.60
72892;BME280;61032;50.782;6.818;2023-04-01T04:24:06;98448.41;;;10.51;73.20
72892;BME280;61032;50.782;6.818;2023-04-01T04:25:10;98441.38;;;10.57;73.45
72892;BME280;61032;50.782;6.818;2023-04-01T04:26:13;98447.66;;;10.61;73.04
72892;BME280;61032;50.782;6.818;2023-04-01T04:27:13;98447.28;;;10.59;73.19
72892;BME280;61032;50.782;6.818;2023-04-01T04:28:14;98444.13;;;10.60;73.57
72892;BME280;61032;50.782;6.818;2023-04-01T04:29:14;98449.22;;;10.55;74.19
72892;BME280;61032;50.782;6.818;2023-04-01T04:30:15;98442.16;;;10.57;73.43
72892;BME280;61032;50.782;6.818;2023-04-01T04:31:19;98453.94;;;10.58;73.61
72892;BME280;61032;50.782;6.818;2023-04-01T04:32:20;98448.06;;;10.59;73.56
72892;BME280;61032;50.782;6.818;2023-04-01T04:33:22;98444.97;;;10.64;74.02
72892;BME280;61032;50.782;6.818;2023-04-01T04:34:22;98448.13;;;10.66;74.10
72892;BME280;61032;50.782;6.818;2023-04-01T04:35:23;98450.44;;;10.64;74.06
72892;BME280;61032;50.782;6.818;2023-04-01T04:36:23;98446.56;;;10.69;73.79
72892;BME280;61032;50.782;6.818;2023-04-01T04:37:23;98447.31;;;10.66;73.76
72892;BME280;61032;50.782;6.818;2023-04-01T04:38:25;98444.16;;;10.64;74.49
72892;BME280;61032;50.782;6.818;2023-04-01T04:39:26;98444.53;;;10.62;74.24
72892;BME280;61032;50.782;6.818;2023-04-01T04:40:26;98447.75;;;10.68;74.23
72892;BME280;61032;50.782;6.818;2023-04-01T04:41:27;98444.59;;;10.70;74.14
72892;BME280;61032;50.782;6.818;2023-04-01T04:42:27;98446.91;;;10.64;74.42
72892;BME280;61032;50.782;6.818;2023-04-01T04:43:27;98451.28;;;10.68;74.32
72892;BME280;61032;50.782;6.818;2023-04-01T04:44:28;98446.19;;;10.71;74.60
72892;BME280;61032;50.782;6.818;2023-04-01T04:45:28;98452.44;;;10.67;74.54
72892;BME280;61032;50.782;6.818;2023-04-01T04:46:29;98452.09;;;10.73;74.42
72892;BME280;61032;50.782;6.818;2023-04-01T04:47:29;98457.22;;;10.74;74.03
72892;BME280;61032;50.782;6.818;2023-04-01T04:48:30;98453.66;;;10.74;74.79
72892;BME280;61032;50.782;6.818;2023-04-01T04:49:30;98450.91;;;10.70;74.51
72892;BME280;61032;50.782;6.818;2023-04-01T04:50:31;98460.31;;;10.69;74.25
72892;BME280;61032;50.782;6.818;2023-04-01T04:51:31;98458.31;;;10.66;74.25
72892;BME280;61032;50.782;6.818;2023-04-01T04:52:34;98452.06;;;10.69;74.47
72892;BME280;61032;50.782;6.818;2023-04-01T04:53:34;98452.06;;;10.69;74.62
72892;BME280;61032;50.782;6.818;2023-04-01T04:54:34;98455.53;;;10.62;74.62
72892;BME280;61032;50.782;6.818;2023-04-01T04:55:35;98459.06;;;10.63;74.72
72892;BME280;61032;50.782;6.818;2023-04-01T04:56:35;98456.78;;;10.68;74.99
72892;BME280;61032;50.782;6.818;2023-04-01T04:57:36;98457.97;;;10.71;74.92
72892;BME280;61032;50.782;6.818;2023-04-01T04:58:37;98462.69;;;10.71;74.66
72892;BME280;61032;50.782;6.818;2023-04-01T04:59:37;98459.91;;;10.67;74.92
72892;BME280;61032;50.782;6.818;2023-04-01T05:00:38;98461.81;;;10.63;74.82
72892;BME280;61032;50.782;6.818;2023-04-01T05:01:38;98464.94;;;10.61;74.76
72892;BME280;61032;50.782;6.818;2023-04-01T05:02:38;98467.72;;;10.65;74.62
72892;BME280;61032;50.782;6.818;2023-04-01T05:03:39;98467.00;;;10.72;74.85
72892;BME280;61032;50.782;6.818;2023-04-01T05:04:39;98463.53;;;10.78;74.76
72892;BME280;61032;50.782;6.818;2023-04-01T05:05:48;98471.41;;;10.83;74.27
72892;BME280;61032;50.782;6.818;2023-04-01T05:06:48;98477.28;;;10.78;74.37
72892;BME280;61032;50.782;6.818;2023-04-01T05:07:49;98471.69;;;10.67;74.30
72892;BME280;61032;50.782;6.818;2023-04-01T05:08:49;98472.47;;;10.68;74.40
72892;BME280;61032;50.782;6.818;2023-04-01T05:09:50;98467.78;;;10.72;74.75
72892;BME280;61032;50.782;6.818;2023-04-01T05:10:50;98472.47;;;10.68;74.09
72892;BME280;61032;50.782;6.818;2023-04-01T05:11:51;98472.47;;;10.68;74.15
72892;BME280;61032;50.782;6.818;2023-04-01T05:12:51;98475.97;;;10.65;74.62
72892;BME280;61032;50.782;6.818;2023-04-01T05:13:51;98470.88;;;10.67;74.59
72892;BME280;61032;50.782;6.818;2023-04-01T05:14:52;98477.59;;;10.70;74.75
72892;BME280;61032;50.782;6.818;2023-04-01T05:15:52;98477.66;;;10.77;74.62
72892;BME280;61032;50.782;6.818;2023-04-01T05:16:53;98474.13;;;10.76;74.28
72892;BME280;61032;50.782;6.818;2023-04-01T05:17:54;98479.91;;;10.67;74.37
72892;BME280;61032;50.782;6.818;2023-04-01T05:18:54;98477.56;;;10.66;74.54
72892;BME280;61032;50.782;6.818;2023-04-01T05:19:55;98481.47;;;10.65;74.94
72892;BME280;61032;50.782;6.818;2023-04-01T05:20:55;98475.94;;;10.58;75.49
72892;BME280;61032;50.782;6.818;2023-04-01T05:21:55;98472.41;;;10.57;75.40
72892;BME280;61032;50.782;6.818;2023-04-01T05:22:56;98477.50;;;10.59;75.78
72892;BME280;61032;50.782;6.818;2023-04-01T05:23:57;98469.97;;;10.49;75.35
72892;BME280;61032;50.782;6.818;2023-04-01T05:24:57;98482.13;;;10.48;75.88
72892;BME280;61032;50.782;6.818;2023-04-01T05:25:57;98484.16;;;10.54;76.37
72892;BME280;61032;50.782;6.818;2023-04-01T05:26:58;98478.56;;;10.47;76.25
72892;BME280;61032;50.782;6.818;2023-04-01T05:27:59;98472.69;;;10.49;76.36
72892;BME280;61032;50.782;6.818;2023-04-01T05:28:59;98482.13;;;10.48;75.78
72892;BME280;61032;50.782;6.818;2023-04-01T05:30:00;98480.56;;;10.50;76.14
72892;BME280;61032;50.782;6.818;2023-04-01T05:31:01;98487.59;;;10.48;76.03
72892;BME280;61032;50.782;6.818;2023-04-01T05:32:02;98481.78;;;10.53;76.16
72892;BME280;61032;50.782;6.818;2023-04-01T05:33:02;98482.53;;;10.50;75.91
72892;BME280;61032;50.782;6.818;2023-04-01T05:34:03;98486.09;;;10.54;76.37
72892;BME280;61032;50.782;6.818;2023-04-01T05:35:03;98489.94;;;10.46;76.40
72892;BME280;61032;50.782;6.818;2023-04-01T05:36:08;98492.59;;;10.35;77.08
72892;BME280;61032;50.782;6.818;2023-04-01T05:37:08;98485.56;;;10.38;77.12
72892;BME280;61032;50.782;6.818;2023-04-01T05:38:09;98495.69;;;10.30;77.20
72892;BME280;61032;50.782;6.818;2023-04-01T05:39:10;98495.31;;;10.31;77.59
72892;BME280;61032;50.782;6.818;2023-04-01T05:40:11;98490.56;;;10.28;77.07
72892;BME280;61032;50.782;6.818;2023-04-01T05:41:11;98499.91;;;10.20;77.88
72892;BME280;61032;50.782;6.818;2023-04-01T05:42:12;98490.03;;;10.16;78.39
72892;BME280;61032;50.782;6.818;2023-04-01T05:43:12;98497.84;;;10.14;78.29
72892;BME280;61032;50.782;6.818;2023-04-01T05:44:13;98495.16;;;10.17;78.06
72892;BME280;61032;50.782;6.818;2023-04-01T05:45:13;98492.44;;;10.21;77.87
72892;BME280;61032;50.782;6.818;2023-04-01T05:46:15;98499.91;;;10.20;78.59